sensor_id;sensor_type;location;lat;lon;timestamp;P1;durP1;ratioP1;P2;durP2;ratioP2
31676;SDS011;18385;51.572;6.578;2023-07-09T00:02:14;7.90;;;3.63;;
31676;SDS011;18385;51.572;6.578;2023-07-09T00:04:40;14.65;;;3.70;;
31676;SDS011;18385;51.572;6.578;2023-07-09T00:07:08;11.18;;;3.38;;
31676;SDS011;18385;51.572;6.578;2023-07-09T00:09:41;12.23;;;4.18;;
31676;SDS011;18385;51.572;6.578;2023-07-09T00:12:11;9.23;;;3.97;;
31676;SDS011;18385;51.572;6.578;2023-07-09T00:14:39;9.02;;;3.70;;
31676;SDS011;18385;51.572;6.578;2023-07-09T00:17:09;11.18;;;3.83;;
31676;SDS011;18385;51.572;6.578;2023-07-09T00:19:56;9.70;;;3.95;;
31676;SDS011;18385;51.572;6.578;2023-07-09T00:22:22;14.32;;;3.85;;
31676;SDS011;18385;51.572;6.578;2023-07-09T00:24:48;9.57;;;4.00;;
31676;SDS011;18385;51.572;6.578;2023-07-09T00:27:19;7.40;;;3.85;;
31676;SDS011;18385;51.572;6.578;2023-07-09T00:29:46;12.40;;;4.72;;
31676;SDS011;18385;51.572;6.578;2023-07-09T00:32:16;9.30;;;3.60;;
31676;SDS011;18385;51.572;6.578;2023-07-09T00:34:45;13.23;;;4.18;;
31676;SDS011;18385;51.572;6.578;2023-07-09T00:37:19;10.48;;;3.63;;
31676;SDS011;18385;51.572;6.578;2023-07-09T00:39:46;8.90;;;4.20;;
31676;SDS011;18385;51.572;6.578;2023-07-09T00:42:17;10.98;;;3.78;;
31676;SDS011;18385;51.572;6.578;2023-07-09T00:44:45;9.65;;;3.85;;
31676;SDS011;18385;51.572;6.578;2023-07-09T00:47:17;21.30;;;5.13;;
31676;SDS011;18385;51.572;6.578;2023-07-09T00:49:46;9.65;;;3.78;;
31676;SDS011;18385;51.572;6.578;2023-07-09T00:52:23;10.18;;;3.97;;
31676;SDS011;18385;51.572;6.578;2023-07-09T00:54:58;23.27;;;6.00;;
31676;SDS011;18385;51.572;6.578;2023-07-09T00:57:30;10.40;;;3.88;;
31676;SDS011;18385;51.572;6.578;2023-07-09T00:59:57;9.00;;;3.70;;
31676;SDS011;18385;51.572;6.578;2023-07-09T01:02:32;8.15;;;3.20;;
31676;SDS011;18385;51.572;6.578;2023-07-09T01:04:59;6.45;;;3.58;;
31676;SDS011;18385;51.572;6.578;2023-07-09T01:07:27;6.22;;;3.25;;
31676;SDS011;18385;51.572;6.578;2023-07-09T01:09:54;8.75;;;3.08;;
31676;SDS011;18385;51.572;6.578;2023-07-09T01:12:19;8.48;;;3.08;;
31676;SDS011;18385;51.572;6.578;2023-07-09T01:14:47;8.32;;;3.08;;
31676;SDS011;18385;51.572;6.578;2023-07-09T01:17:16;8.65;;;3.30;;
31676;SDS011;18385;51.572;6.578;2023-07-09T01:19:49;8.55;;;3.08;;
31676;SDS011;18385;51.572;6.578;2023-07-09T01:22:17;5.40;;;3.30;;
31676;SDS011;18385;51.572;6.578;2023-07-09T01:24:52;8.65;;;3.38;;
31676;SDS011;18385;51.572;6.578;2023-07-09T01:27:46;6.57;;;3.47;;
31676;SDS011;18385;51.572;6.578;2023-07-09T01:30:13;7.88;;;3.60;;
31676;SDS011;18385;51.572;6.578;2023-07-09T01:32:51;8.02;;;3.40;;
31676;SDS011;18385;51.572;6.578;2023-07-09T01:35:22;9.77;;;3.60;;
31676;SDS011;18385;51.572;6.578;2023-07-09T01:37:48;7.90;;;3.70;;
31676;SDS011;18385;51.572;6.578;2023-07-09T01:40:15;10.05;;;4.20;;
31676;SDS011;18385;51.572;6.578;2023-07-09T01:45:08;8.43;;;3.25;;
31676;SDS011;18385;51.572;6.578;2023-07-09T01:47:35;9.70;;;3.45;;
31676;SDS011;18385;51.572;6.578;2023-07-09T01:50:02;8.93;;;3.47;;
31676;SDS011;18385;51.572;6.578;2023-07-09T01:52:29;6.28;;;3.58;;
31676;SDS011;18385;51.572;6.578;2023-07-09T01:54:57;7.28;;;3.70;;
31676;SDS011;18385;51.572;6.578;2023-07-09T01:57:23;7.07;;;3.50;;
31676;SDS011;18385;51.572;6.578;2023-07-09T02:00:02;9.55;;;3.67;;
31676;SDS011;18385;51.572;6.578;2023-07-09T02:02:39;11.70;;;4.38;;
31676;SDS011;18385;51.572;6.578;2023-07-09T02:05:10;5.55;;;3.30;;
31676;SDS011;18385;51.572;6.578;2023-07-09T02:07:38;8.80;;;4.10;;
31676;SDS011;18385;51.572;6.578;2023-07-09T02:10:04;7.18;;;3.72;;
31676;SDS011;18385;51.572;6.578;2023-07-09T02:12:31;7.80;;;4.00;;
31676;SDS011;18385;51.572;6.578;2023-07-09T02:14:56;9.60;;;3.90;;
31676;SDS011;18385;51.572;6.578;2023-07-09T02:17:23;7.55;;;3.85;;
31676;SDS011;18385;51.572;6.578;2023-07-09T02:19:50;8.05;;;4.18;;
31676;SDS011;18385;51.572;6.578;2023-07-09T02:22:16;9.52;;;4.13;;
31676;SDS011;18385;51.572;6.578;2023-07-09T02:24:44;7.28;;;3.30;;
31676;SDS011;18385;51.572;6.578;2023-07-09T02:27:12;6.72;;;3.08;;
31676;SDS011;18385;51.572;6.578;2023-07-09T02:29:40;6.78;;;3.38;;
31676;SDS011;18385;51.572;6.578;2023-07-09T02:32:06;9.45;;;3.90;;
31676;SDS011;18385;51.572;6.578;2023-07-09T02:34:32;9.90;;;4.10;;
31676;SDS011;18385;51.572;6.578;2023-07-09T02:36:58;6.45;;;3.80;;
31676;SDS011;18385;51.572;6.578;2023-07-09T02:39:24;10.57;;;4.45;;
31676;SDS011;18385;51.572;6.578;2023-07-09T02:41:51;10.43;;;3.97;;
31676;SDS011;18385;51.572;6.578;2023-07-09T02:44:17;11.35;;;4.05;;
31676;SDS011;18385;51.572;6.578;2023-07-09T02:46:44;13.07;;;3.80;;
31676;SDS011;18385;51.572;6.578;2023-07-09T02:49:11;9.57;;;4.40;;
31676;SDS011;18385;51.572;6.578;2023-07-09T02:51:38;8.63;;;3.67;;
31676;SDS011;18385;51.572;6.578;2023-07-09T02:54:04;11.32;;;4.75;;
31676;SDS011;18385;51.572;6.578;2023-07-09T02:56:30;5.80;;;3.58;;
31676;SDS011;18385;51.572;6.578;2023-07-09T02:58:56;7.28;;;3.50;;
31676;SDS011;18385;51.572;6.578;2023-07-09T03:01:22;8.95;;;3.38;;
31676;SDS011;18385;51.572;6.578;2023-07-09T03:03:54;6.47;;;3.55;;
31676;SDS011;18385;51.572;6.578;2023-07-09T03:06:20;12.18;;;3.80;;
31676;SDS011;18385;51.572;6.578;2023-07-09T03:08:47;10.63;;;3.80;;
31676;SDS011;18385;51.572;6.578;2023-07-09T03:11:13;8.93;;;4.07;;
31676;SDS011;18385;51.572;6.578;2023-07-09T03:13:40;7.82;;;3.50;;
31676;SDS011;18385;51.572;6.578;2023-07-09T03:16:06;6.38;;;3.58;;
31676;SDS011;18385;51.572;6.578;2023-07-09T03:18:32;10.30;;;3.80;;
31676;SDS011;18385;51.572;6.578;2023-07-09T03:20:58;6.32;;;3.58;;
31676;SDS011;18385;51.572;6.578;2023-07-09T03:23:24;9.65;;;3.97;;
31676;SDS011;18385;51.572;6.578;2023-07-09T03:25:49;10.43;;;4.13;;
31676;SDS011;18385;51.572;6.578;2023-07-09T03:28:15;9.07;;;3.38;;
31676;SDS011;18385;51.572;6.578;2023-07-09T03:30:41;11.18;;;3.90;;
31676;SDS011;18385;51.572;6.578;2023-07-09T03:33:09;8.38;;;3.47;;
31676;SDS011;18385;51.572;6.578;2023-07-09T03:35:36;8.55;;;4.13;;
31676;SDS011;18385;51.572;6.578;2023-07-09T03:38:03;6.95;;;3.47;;
31676;SDS011;18385;51.572;6.578;2023-07-09T03:40:29;8.70;;;3.67;;
31676;SDS011;18385;51.572;6.578;2023-07-09T03:42:55;7.43;;;3.38;;
31676;SDS011;18385;51.572;6.578;2023-07-09T03:45:21;6.63;;;3.38;;
31676;SDS011;18385;51.572;6.578;2023-07-09T03:47:47;6.75;;;3.40;;
31676;SDS011;18385;51.572;6.578;2023-07-09T03:50:12;11.75;;;4.57;;
31676;SDS011;18385;51.572;6.578;2023-07-09T03:52:38;9.52;;;4.07;;
31676;SDS011;18385;51.572;6.578;2023-07-09T03:55:04;6.82;;;3.25;;
31676;SDS011;18385;51.572;6.578;2023-07-09T03:57:30;6.82;;;3.42;;
31676;SDS011;18385;51.572;6.578;2023-07-09T03:59:56;7.00;;;3.75;;
31676;SDS011;18385;51.572;6.578;2023-07-09T04:02:22;9.02;;;4.00;;
31676;SDS011;18385;51.572;6.578;2023-07-09T04:04:48;6.60;;;3.63;;
31676;SDS011;18385;51.572;6.578;2023-07-09T04:07:14;7.30;;;3.55;;
31676;SDS011;18385;51.572;6.578;2023-07-09T04:09:40;6.50;;;3.13;;
31676;SDS011;18385;51.572;6.578;2023-07-09T04:12:06;5.85;;;3.30;;
31676;SDS011;18385;51.572;6.578;2023-07-09T04:14:32;7.10;;;2.95;;
31676;SDS011;18385;51.572;6.578;2023-07-09T04:16:58;8.00;;;3.20;;
31676;SDS011;18385;51.572;6.578;2023-07-09T04:19:23;8.07;;;3.90;;
31676;SDS011;18385;51.572;6.578;2023-07-09T04:21:50;6.82;;;3.47;;
31676;SDS011;18385;51.572;6.578;2023-07-09T04:24:16;6.63;;;3.67;;
31676;SDS011;18385;51.572;6.578;2023-07-09T04:26:43;7.03;;;3.90;;
31676;SDS011;18385;51.572;6.578;2023-07-09T04:29:09;8.45;;;3.92;;
31676;SDS011;18385;51.572;6.578;2023-07-09T04:31:35;9.18;;;3.72;;
31676;SDS011;18385;51.572;6.578;2023-07-09T04:34:01;9.20;;;3.85;;
31676;SDS011;18385;51.572;6.578;2023-07-09T04:36:26;7.00;;;3.67;;
31676;SDS011;18385;51.572;6.578;2023-07-09T04:38:52;7.32;;;3.72;;
31676;SDS011;18385;51.572;6.578;2023-07-09T04:41:18;9.02;;;3.50;;
31676;SDS011;18385;51.572;6.578;2023-07-09T04:43:44;9.73;;;3.95;;
31676;SDS011;18385;51.572;6.578;2023-07-09T04:46:09;7.85;;;3.70;;
31676;SDS011;18385;51.572;6.578;2023-07-09T04:48:35;6.20;;;3.42;;
31676;SDS011;18385;51.572;6.578;2023-07-09T04:51:01;8.55;;;3.60;;
31676;SDS011;18385;51.572;6.578;2023-07-09T04:53:26;7.40;;;3.65;;
31676;SDS011;18385;51.572;6.578;2023-07-09T04:55:52;5.68;;;3.10;;
31676;SDS011;18385;51.572;6.578;2023-07-09T04:58:18;7.03;;;3.22;;
31676;SDS011;18385;51.572;6.578;2023-07-09T05:00:44;10.63;;;4.15;;
31676;SDS011;18385;51.572;6.578;2023-07-09T05:03:10;7.72;;;3.75;;
31676;SDS011;18385;51.572;6.578;2023-07-09T05:05:43;5.60;;;3.30;;
31676;SDS011;18385;51.572;6.578;2023-07-09T05:08:09;10.10;;;4.00;;
31676;SDS011;18385;51.572;6.578;2023-07-09T05:10:46;6.55;;;3.50;;
31676;SDS011;18385;51.572;6.578;2023-07-09T05:13:15;13.05;;;4.28;;
31676;SDS011;18385;51.572;6.578;2023-07-09T05:15:41;13.90;;;3.67;;
31676;SDS011;18385;51.572;6.578;2023-07-09T05:18:10;8.73;;;3.95;;
31676;SDS011;18385;51.572;6.578;2023-07-09T05:20:36;6.47;;;3.00;;
31676;SDS011;18385;51.572;6.578;2023-07-09T05:23:02;7.95;;;4.07;;
31676;SDS011;18385;51.572;6.578;2023-07-09T05:25:28;9.40;;;3.53;;
31676;SDS011;18385;51.572;6.578;2023-07-09T05:27:53;6.72;;;3.28;;
31676;SDS011;18385;51.572;6.578;2023-07-09T05:30:19;6.90;;;3.42;;
31676;SDS011;18385;51.572;6.578;2023-07-09T05:32:46;6.78;;;2.90;;
31676;SDS011;18385;51.572;6.578;2023-07-09T05:35:12;8.32;;;3.95;;
31676;SDS011;18385;51.572;6.578;2023-07-09T05:37:38;9.85;;;3.88;;
31676;SDS011;18385;51.572;6.578;2023-07-09T05:40:05;6.95;;;3.85;;
31676;SDS011;18385;51.572;6.578;2023-07-09T05:42:32;9.63;;;3.83;;
31676;SDS011;18385;51.572;6.578;2023-07-09T05:44:58;14.25;;;3.88;;
31676;SDS011;18385;51.572;6.578;2023-07-09T05:47:24;11.82;;;5.00;;
31676;SDS011;18385;51.572;6.578;2023-07-09T05:49:51;7.45;;;4.07;;
31676;SDS011;18385;51.572;6.578;2023-07-09T05:52:18;9.95;;;3.88;;
31676;SDS011;18385;51.572;6.578;2023-07-09T05:54:49;8.48;;;4.30;;
31676;SDS011;18385;51.572;6.578;2023-07-09T05:57:16;10.40;;;4.22;;
31676;SDS011;18385;51.572;6.578;2023-07-09T05:59:42;8.05;;;3.58;;
31676;SDS011;18385;51.572;6.578;2023-07-09T06:02:10;9.30;;;3.97;;
31676;SDS011;18385;51.572;6.578;2023-07-09T06:04:40;7.78;;;4.22;;
31676;SDS011;18385;51.572;6.578;2023-07-09T06:07:07;11.45;;;3.88;;
31676;SDS011;18385;51.572;6.578;2023-07-09T06:09:33;9.23;;;4.55;;
31676;SDS011;18385;51.572;6.578;2023-07-09T06:11:59;8.95;;;4.07;;
31676;SDS011;18385;51.572;6.578;2023-07-09T06:14:26;8.02;;;4.07;;
31676;SDS011;18385;51.572;6.578;2023-07-09T06:16:52;10.10;;;4.40;;
31676;SDS011;18385;51.572;6.578;2023-07-09T06:19:17;15.48;;;5.90;;
31676;SDS011;18385;51.572;6.578;2023-07-09T06:21:43;11.55;;;4.97;;
31676;SDS011;18385;51.572;6.578;2023-07-09T06:24:09;15.90;;;4.85;;
31676;SDS011;18385;51.572;6.578;2023-07-09T06:26:34;13.02;;;4.15;;
31676;SDS011;18385;51.572;6.578;2023-07-09T06:29:00;12.32;;;4.38;;
31676;SDS011;18385;51.572;6.578;2023-07-09T06:31:26;10.23;;;4.75;;
31676;SDS011;18385;51.572;6.578;2023-07-09T06:33:52;9.00;;;4.00;;
31676;SDS011;18385;51.572;6.578;2023-07-09T06:36:18;8.63;;;4.00;;
31676;SDS011;18385;51.572;6.578;2023-07-09T06:38:44;8.25;;;3.67;;
31676;SDS011;18385;51.572;6.578;2023-07-09T06:41:11;13.48;;;4.07;;
31676;SDS011;18385;51.572;6.578;2023-07-09T06:43:37;10.13;;;4.20;;
31676;SDS011;18385;51.572;6.578;2023-07-09T06:46:04;9.25;;;4.03;;
31676;SDS011;18385;51.572;6.578;2023-07-09T06:48:32;10.40;;;4.47;;
31676;SDS011;18385;51.572;6.578;2023-07-09T06:50:58;10.70;;;4.53;;
31676;SDS011;18385;51.572;6.578;2023-07-09T06:53:25;14.25;;;4.85;;
31676;SDS011;18385;51.572;6.578;2023-07-09T06:55:52;14.27;;;3.88;;
31676;SDS011;18385;51.572;6.578;2023-07-09T06:58:20;9.85;;;4.28;;
31676;SDS011;18385;51.572;6.578;2023-07-09T07:00:48;10.00;;;5.07;;
31676;SDS011;18385;51.572;6.578;2023-07-09T07:03:14;12.85;;;4.85;;
31676;SDS011;18385;51.572;6.578;2023-07-09T07:05:47;13.00;;;4.80;;
31676;SDS011;18385;51.572;6.578;2023-07-09T07:08:15;8.80;;;4.03;;
31676;SDS011;18385;51.572;6.578;2023-07-09T07:10:43;11.32;;;4.35;;
31676;SDS011;18385;51.572;6.578;2023-07-09T07:13:10;11.80;;;3.97;;
31676;SDS011;18385;51.572;6.578;2023-07-09T07:15:36;10.18;;;4.10;;
31676;SDS011;18385;51.572;6.578;2023-07-09T07:18:03;8.18;;;3.53;;
31676;SDS011;18385;51.572;6.578;2023-07-09T07:20:29;10.77;;;4.28;;
31676;SDS011;18385;51.572;6.578;2023-07-09T07:22:55;10.13;;;3.60;;
31676;SDS011;18385;51.572;6.578;2023-07-09T07:25:22;11.93;;;4.30;;
31676;SDS011;18385;51.572;6.578;2023-07-09T07:27:48;8.98;;;4.05;;
31676;SDS011;18385;51.572;6.578;2023-07-09T07:30:14;10.60;;;4.50;;
31676;SDS011;18385;51.572;6.578;2023-07-09T07:32:45;11.10;;;4.13;;
31676;SDS011;18385;51.572;6.578;2023-07-09T07:35:13;8.00;;;4.38;;
31676;SDS011;18385;51.572;6.578;2023-07-09T07:37:39;10.07;;;4.32;;
31676;SDS011;18385;51.572;6.578;2023-07-09T07:40:06;11.00;;;5.18;;
31676;SDS011;18385;51.572;6.578;2023-07-09T07:42:32;9.45;;;4.30;;
31676;SDS011;18385;51.572;6.578;2023-07-09T07:44:58;10.02;;;3.55;;
31676;SDS011;18385;51.572;6.578;2023-07-09T07:47:24;9.90;;;3.13;;
31676;SDS011;18385;51.572;6.578;2023-07-09T07:49:52;8.25;;;3.20;;
31676;SDS011;18385;51.572;6.578;2023-07-09T07:52:18;7.43;;;2.95;;
31676;SDS011;18385;51.572;6.578;2023-07-09T07:54:45;8.15;;;3.10;;
31676;SDS011;18385;51.572;6.578;2023-07-09T07:57:10;9.25;;;3.83;;
31676;SDS011;18385;51.572;6.578;2023-07-09T07:59:37;8.13;;;4.35;;
31676;SDS011;18385;51.572;6.578;2023-07-09T08:02:04;7.65;;;3.75;;
31676;SDS011;18385;51.572;6.578;2023-07-09T08:04:32;9.75;;;3.50;;
31676;SDS011;18385;51.572;6.578;2023-07-09T08:06:58;9.13;;;3.78;;
31676;SDS011;18385;51.572;6.578;2023-07-09T08:09:24;8.88;;;3.15;;
31676;SDS011;18385;51.572;6.578;2023-07-09T08:11:49;7.43;;;3.50;;
31676;SDS011;18385;51.572;6.578;2023-07-09T08:14:15;7.07;;;3.47;;
31676;SDS011;18385;51.572;6.578;2023-07-09T08:16:41;7.68;;;3.25;;
31676;SDS011;18385;51.572;6.578;2023-07-09T08:19:07;6.75;;;2.95;;
31676;SDS011;18385;51.572;6.578;2023-07-09T08:21:33;8.30;;;3.53;;
31676;SDS011;18385;51.572;6.578;2023-07-09T08:23:59;11.65;;;3.22;;
31676;SDS011;18385;51.572;6.578;2023-07-09T08:26:25;8.52;;;3.33;;
31676;SDS011;18385;51.572;6.578;2023-07-09T08:28:51;6.82;;;2.83;;
31676;SDS011;18385;51.572;6.578;2023-07-09T08:31:17;6.53;;;2.80;;
31676;SDS011;18385;51.572;6.578;2023-07-09T08:33:43;7.72;;;3.33;;
31676;SDS011;18385;51.572;6.578;2023-07-09T08:36:09;9.55;;;3.03;;
31676;SDS011;18385;51.572;6.578;2023-07-09T08:38:34;10.50;;;3.40;;
31676;SDS011;18385;51.572;6.578;2023-07-09T08:46:25;9.13;;;3.95;;
31676;SDS011;18385;51.572;6.578;2023-07-09T08:49:16;10.07;;;2.60;;
31676;SDS011;18385;51.572;6.578;2023-07-09T08:51:46;6.78;;;3.20;;
31676;SDS011;18385;51.572;6.578;2023-07-09T08:54:14;8.30;;;2.88;;
31676;SDS011;18385;51.572;6.578;2023-07-09T08:57:44;8.02;;;3.80;;
31676;SDS011;18385;51.572;6.578;2023-07-09T08:59:54;9.15;;;3.47;;
31676;SDS011;18385;51.572;6.578;2023-07-09T09:02:33;6.70;;;3.22;;
31676;SDS011;18385;51.572;6.578;2023-07-09T09:10:04;6.53;;;2.95;;
31676;SDS011;18385;51.572;6.578;2023-07-09T09:12:36;5.93;;;2.72;;
31676;SDS011;18385;51.572;6.578;2023-07-09T09:15:16;7.38;;;2.88;;
31676;SDS011;18385;51.572;6.578;2023-07-09T09:17:43;9.53;;;3.23;;
31676;SDS011;18385;51.572;6.578;2023-07-09T09:20:10;8.32;;;3.17;;
31676;SDS011;18385;51.572;6.578;2023-07-09T09:25:32;7.22;;;2.95;;
31676;SDS011;18385;51.572;6.578;2023-07-09T09:28:00;8.52;;;3.83;;
31676;SDS011;18385;51.572;6.578;2023-07-09T09:30:27;7.78;;;3.00;;
31676;SDS011;18385;51.572;6.578;2023-07-09T09:32:54;8.65;;;3.00;;
31676;SDS011;18385;51.572;6.578;2023-07-09T09:35:25;7.95;;;3.13;;
31676;SDS011;18385;51.572;6.578;2023-07-09T09:37:54;7.47;;;2.95;;
31676;SDS011;18385;51.572;6.578;2023-07-09T09:40:21;6.85;;;3.33;;
31676;SDS011;18385;51.572;6.578;2023-07-09T09:42:49;5.05;;;2.58;;
31676;SDS011;18385;51.572;6.578;2023-07-09T09:45:16;6.30;;;2.53;;
31676;SDS011;18385;51.572;6.578;2023-07-09T09:47:45;5.63;;;2.63;;
31676;SDS011;18385;51.572;6.578;2023-07-09T09:50:19;7.88;;;2.90;;
31676;SDS011;18385;51.572;6.578;2023-07-09T09:52:48;6.97;;;2.83;;
31676;SDS011;18385;51.572;6.578;2023-07-09T09:55:19;7.18;;;3.13;;
31676;SDS011;18385;51.572;6.578;2023-07-09T09:57:51;8.20;;;2.65;;
31676;SDS011;18385;51.572;6.578;2023-07-09T10:00:18;5.65;;;2.83;;
31676;SDS011;18385;51.572;6.578;2023-07-09T10:02:47;5.20;;;2.40;;
31676;SDS011;18385;51.572;6.578;2023-07-09T10:05:14;7.68;;;2.78;;
31676;SDS011;18385;51.572;6.578;2023-07-09T10:07:47;5.00;;;2.35;;
31676;SDS011;18385;51.572;6.578;2023-07-09T10:10:25;6.78;;;2.47;;
31676;SDS011;18385;51.572;6.578;2023-07-09T10:12:58;5.30;;;2.22;;
31676;SDS011;18385;51.572;6.578;2023-07-09T10:15:42;7.10;;;2.88;;
31676;SDS011;18385;51.572;6.578;2023-07-09T10:18:24;7.38;;;2.28;;
31676;SDS011;18385;51.572;6.578;2023-07-09T10:23:54;8.20;;;2.50;;
31676;SDS011;18385;51.572;6.578;2023-07-09T10:26:36;4.03;;;2.28;;
31676;SDS011;18385;51.572;6.578;2023-07-09T10:40:32;5.68;;;2.08;;
31676;SDS011;18385;51.572;6.578;2023-07-09T10:43:03;7.03;;;2.53;;
31676;SDS011;18385;51.572;6.578;2023-07-09T10:45:33;6.07;;;2.40;;
31676;SDS011;18385;51.572;6.578;2023-07-09T10:48:09;8.25;;;1.98;;
31676;SDS011;18385;51.572;6.578;2023-07-09T10:54:31;4.68;;;1.90;;
31676;SDS011;18385;51.572;6.578;2023-07-09T10:56:59;5.82;;;2.10;;
31676;SDS011;18385;51.572;6.578;2023-07-09T10:59:43;8.93;;;2.42;;
31676;SDS011;18385;51.572;6.578;2023-07-09T11:02:34;4.35;;;1.77;;
31676;SDS011;18385;51.572;6.578;2023-07-09T11:05:11;5.47;;;2.15;;
31676;SDS011;18385;51.572;6.578;2023-07-09T11:08:04;6.70;;;2.38;;
31676;SDS011;18385;51.572;6.578;2023-07-09T11:10:59;4.90;;;2.30;;
31676;SDS011;18385;51.572;6.578;2023-07-09T11:13:54;5.25;;;1.98;;
31676;SDS011;18385;51.572;6.578;2023-07-09T11:16:55;6.30;;;2.33;;
31676;SDS011;18385;51.572;6.578;2023-07-09T11:19:23;4.03;;;1.90;;
31676;SDS011;18385;51.572;6.578;2023-07-09T11:26:15;4.10;;;2.05;;
31676;SDS011;18385;51.572;6.578;2023-07-09T11:29:06;7.03;;;2.40;;
31676;SDS011;18385;51.572;6.578;2023-07-09T11:31:53;6.40;;;2.33;;
31676;SDS011;18385;51.572;6.578;2023-07-09T11:34:27;8.32;;;2.03;;
31676;SDS011;18385;51.572;6.578;2023-07-09T11:37:08;4.45;;;2.40;;
31676;SDS011;18385;51.572;6.578;2023-07-09T11:40:09;6.45;;;2.40;;
31676;SDS011;18385;51.572;6.578;2023-07-09T11:46:31;5.50;;;2.28;;
31676;SDS011;18385;51.572;6.578;2023-07-09T11:48:59;4.05;;;2.00;;
31676;SDS011;18385;51.572;6.578;2023-07-09T11:51:45;5.65;;;2.53;;
31676;SDS011;18385;51.572;6.578;2023-07-09T11:54:17;7.25;;;2.20;;
31676;SDS011;18385;51.572;6.578;2023-07-09T11:56:53;5.18;;;2.78;;
31676;SDS011;18385;51.572;6.578;2023-07-09T11:59:22;6.55;;;2.10;;
31676;SDS011;18385;51.572;6.578;2023-07-09T12:01:48;4.75;;;2.50;;
31676;SDS011;18385;51.572;6.578;2023-07-09T12:04:18;3.85;;;1.95;;
31676;SDS011;18385;51.572;6.578;2023-07-09T12:06:46;6.22;;;2.40;;
31676;SDS011;18385;51.572;6.578;2023-07-09T12:09:16;9.85;;;3.30;;
31676;SDS011;18385;51.572;6.578;2023-07-09T12:11:47;5.90;;;3.10;;
31676;SDS011;18385;51.572;6.578;2023-07-09T12:14:16;4.68;;;2.75;;
31676;SDS011;18385;51.572;6.578;2023-07-09T12:16:47;7.07;;;3.17;;
31676;SDS011;18385;51.572;6.578;2023-07-09T12:19:16;6.10;;;2.38;;
31676;SDS011;18385;51.572;6.578;2023-07-09T12:21:47;5.50;;;2.50;;
31676;SDS011;18385;51.572;6.578;2023-07-09T12:24:20;2.92;;;1.88;;
31676;SDS011;18385;51.572;6.578;2023-07-09T12:27:00;7.35;;;3.00;;
31676;SDS011;18385;51.572;6.578;2023-07-09T12:29:33;4.68;;;2.38;;
31676;SDS011;18385;51.572;6.578;2023-07-09T12:32:11;7.30;;;2.28;;
31676;SDS011;18385;51.572;6.578;2023-07-09T12:34:38;4.07;;;2.60;;
31676;SDS011;18385;51.572;6.578;2023-07-09T12:37:04;3.95;;;2.20;;
31676;SDS011;18385;51.572;6.578;2023-07-09T12:39:31;4.53;;;1.92;;
31676;SDS011;18385;51.572;6.578;2023-07-09T12:42:01;6.32;;;2.28;;
31676;SDS011;18385;51.572;6.578;2023-07-09T12:44:29;5.82;;;3.00;;
31676;SDS011;18385;51.572;6.578;2023-07-09T12:46:59;4.03;;;2.38;;
31676;SDS011;18385;51.572;6.578;2023-07-09T12:49:26;3.90;;;2.00;;
31676;SDS011;18385;51.572;6.578;2023-07-09T12:51:54;5.40;;;2.40;;
31676;SDS011;18385;51.572;6.578;2023-07-09T12:54:21;5.63;;;1.95;;
31676;SDS011;18385;51.572;6.578;2023-07-09T12:56:50;6.18;;;2.10;;
31676;SDS011;18385;51.572;6.578;2023-07-09T12:59:21;4.32;;;1.90;;
31676;SDS011;18385;51.572;6.578;2023-07-09T13:02:02;4.65;;;2.22;;
31676;SDS011;18385;51.572;6.578;2023-07-09T13:04:47;4.10;;;2.30;;
31676;SDS011;18385;51.572;6.578;2023-07-09T13:07:25;4.03;;;2.25;;
31676;SDS011;18385;51.572;6.578;2023-07-09T13:09:55;8.02;;;2.47;;
31676;SDS011;18385;51.572;6.578;2023-07-09T13:12:30;6.15;;;2.30;;
31676;SDS011;18385;51.572;6.578;2023-07-09T13:15:03;4.85;;;2.35;;
31676;SDS011;18385;51.572;6.578;2023-07-09T13:17:32;4.63;;;2.60;;
31676;SDS011;18385;51.572;6.578;2023-07-09T13:20:03;6.10;;;2.50;;
31676;SDS011;18385;51.572;6.578;2023-07-09T13:22:38;5.95;;;2.35;;
31676;SDS011;18385;51.572;6.578;2023-07-09T13:25:13;5.20;;;2.33;;
31676;SDS011;18385;51.572;6.578;2023-07-09T13:27:42;9.90;;;2.60;;
31676;SDS011;18385;51.572;6.578;2023-07-09T13:30:27;6.78;;;2.47;;
31676;SDS011;18385;51.572;6.578;2023-07-09T13:33:07;5.13;;;2.30;;
31676;SDS011;18385;51.572;6.578;2023-07-09T13:39:22;4.80;;;2.00;;
31676;SDS011;18385;51.572;6.578;2023-07-09T13:46:45;4.80;;;2.20;;
31676;SDS011;18385;51.572;6.578;2023-07-09T13:49:17;5.88;;;2.13;;
31676;SDS011;18385;51.572;6.578;2023-07-09T13:51:54;6.40;;;2.45;;
31676;SDS011;18385;51.572;6.578;2023-07-09T13:57:52;8.13;;;3.03;;
31676;SDS011;18385;51.572;6.578;2023-07-09T14:00:21;5.30;;;2.15;;
31676;SDS011;18385;51.572;6.578;2023-07-09T14:02:53;7.57;;;2.42;;
31676;SDS011;18385;51.572;6.578;2023-07-09T14:05:21;6.38;;;2.53;;
31676;SDS011;18385;51.572;6.578;2023-07-09T14:07:51;4.35;;;2.17;;
31676;SDS011;18385;51.572;6.578;2023-07-09T14:10:27;8.57;;;2.60;;
31676;SDS011;18385;51.572;6.578;2023-07-09T14:12:53;6.85;;;2.53;;
31676;SDS011;18385;51.572;6.578;2023-07-09T14:15:21;6.03;;;2.13;;
31676;SDS011;18385;51.572;6.578;2023-07-09T14:17:56;9.05;;;2.55;;
31676;SDS011;18385;51.572;6.578;2023-07-09T14:20:32;5.70;;;2.00;;
31676;SDS011;18385;51.572;6.578;2023-07-09T14:22:57;6.65;;;2.28;;
31676;SDS011;18385;51.572;6.578;2023-07-09T14:25:24;6.47;;;1.77;;
31676;SDS011;18385;51.572;6.578;2023-07-09T14:27:51;6.32;;;2.40;;
31676;SDS011;18385;51.572;6.578;2023-07-09T14:30:37;6.27;;;2.40;;
31676;SDS011;18385;51.572;6.578;2023-07-09T14:33:15;10.63;;;2.65;;
31676;SDS011;18385;51.572;6.578;2023-07-09T14:35:48;5.25;;;3.08;;
31676;SDS011;18385;51.572;6.578;2023-07-09T14:40:48;12.15;;;4.20;;
31676;SDS011;18385;51.572;6.578;2023-07-09T14:43:15;11.63;;;3.22;;
31676;SDS011;18385;51.572;6.578;2023-07-09T14:45:41;12.45;;;4.82;;
31676;SDS011;18385;51.572;6.578;2023-07-09T14:48:12;15.52;;;4.85;;
31676;SDS011;18385;51.572;6.578;2023-07-09T14:50:55;9.90;;;3.80;;
31676;SDS011;18385;51.572;6.578;2023-07-09T14:53:25;10.32;;;3.00;;
31676;SDS011;18385;51.572;6.578;2023-07-09T14:55:52;6.35;;;3.00;;
31676;SDS011;18385;51.572;6.578;2023-07-09T14:58:22;9.65;;;2.50;;
31676;SDS011;18385;51.572;6.578;2023-07-09T15:00:48;7.28;;;2.30;;
31676;SDS011;18385;51.572;6.578;2023-07-09T15:03:24;3.53;;;2.33;;
31676;SDS011;18385;51.572;6.578;2023-07-09T15:05:52;4.68;;;2.03;;
31676;SDS011;18385;51.572;6.578;2023-07-09T15:08:20;3.80;;;2.45;;
31676;SDS011;18385;51.572;6.578;2023-07-09T15:10:50;6.50;;;2.00;;
31676;SDS011;18385;51.572;6.578;2023-07-09T15:13:33;11.73;;;2.90;;
31676;SDS011;18385;51.572;6.578;2023-07-09T15:16:53;9.40;;;3.13;;
31676;SDS011;18385;51.572;6.578;2023-07-09T15:19:55;8.85;;;2.97;;
31676;SDS011;18385;51.572;6.578;2023-07-09T15:29:37;12.13;;;5.30;;
31676;SDS011;18385;51.572;6.578;2023-07-09T15:32:39;10.43;;;4.78;;
31676;SDS011;18385;51.572;6.578;2023-07-09T15:35:38;9.77;;;4.85;;
31676;SDS011;18385;51.572;6.578;2023-07-09T15:38:57;9.55;;;5.13;;
31676;SDS011;18385;51.572;6.578;2023-07-09T15:41:28;7.85;;;4.10;;
31676;SDS011;18385;51.572;6.578;2023-07-09T15:43:55;10.25;;;4.68;;
31676;SDS011;18385;51.572;6.578;2023-07-09T15:46:28;6.32;;;4.00;;
31676;SDS011;18385;51.572;6.578;2023-07-09T15:48:54;6.10;;;4.13;;
31676;SDS011;18385;51.572;6.578;2023-07-09T15:51:21;7.25;;;4.10;;
31676;SDS011;18385;51.572;6.578;2023-07-09T15:53:49;7.88;;;4.70;;
31676;SDS011;18385;51.572;6.578;2023-07-09T15:58:49;8.02;;;5.38;;
31676;SDS011;18385;51.572;6.578;2023-07-09T16:01:16;6.93;;;4.78;;
31676;SDS011;18385;51.572;6.578;2023-07-09T16:03:43;11.38;;;5.35;;
31676;SDS011;18385;51.572;6.578;2023-07-09T16:06:13;8.52;;;5.30;;
31676;SDS011;18385;51.572;6.578;2023-07-09T16:08:39;8.20;;;5.40;;
31676;SDS011;18385;51.572;6.578;2023-07-09T16:11:23;14.05;;;5.45;;